sensor_id;sensor_type;location;lat;lon;timestamp;pressure;altitude;pressure_sealevel;temperature;humidity
25350;BME280;13302;48.796;11.978;2022-10-16T00:01:14;96832.66;;;16.44;44.08
25350;BME280;13302;48.796;11.978;2022-10-16T00:04:02;96827.47;;;16.46;43.83
25350;BME280;13302;48.796;11.978;2022-10-16T00:06:49;96825.50;;;16.46;43.83
25350;BME280;13302;48.796;11.978;2022-10-16T00:09:36;96826.28;;;16.47;43.88
25350;BME280;13302;48.796;11.978;2022-10-16T00:12:23;96821.50;;;16.47;43.75
25350;BME280;13302;48.796;11.978;2022-10-16T00:15:10;96816.31;;;16.46;43.94
25350;BME280;13302;48.796;11.978;2022-10-16T00:17:57;96820.72;;;16.47;43.74
25350;BME280;13302;48.796;11.978;2022-10-16T00:20:45;96828.28;;;16.46;43.57
25350;BME280;13302;48.796;11.978;2022-10-16T00:23:52;96826.28;;;16.43;43.95
25350;BME280;13302;48.796;11.978;2022-10-16T00:26:39;96828.69;;;16.45;43.69
25350;BME280;13302;48.796;11.978;2022-10-16T00:29:26;96829.88;;;16.44;43.78
25350;BME280;13302;48.796;11.978;2022-10-16T00:32:14;96835.06;;;16.45;43.91
25350;BME280;13302;48.796;11.978;2022-10-16T00:35:01;96834.28;;;16.45;43.92
25350;BME280;13302;48.796;11.978;2022-10-16T00:37:48;96829.50;;;16.45;44.13
25350;BME280;13302;48.796;11.978;2022-10-16T00:40:35;96839.44;;;16.46;43.88
25350;BME280;13302;48.796;11.978;2022-10-16T00:43:44;96839.44;;;16.46;43.83
25350;BME280;13302;48.796;11.978;2022-10-16T00:46:40;96833.84;;;16.46;43.82
25350;BME280;13302;48.796;11.978;2022-10-16T00:49:29;96831.50;;;16.48;44.01
25350;BME280;13302;48.796;11.978;2022-10-16T00:52:16;96837.88;;;16.49;44.01
25350;BME280;13302;48.796;11.978;2022-10-16T00:55:04;96839.47;;;16.50;44.00
25350;BME280;13302;48.796;11.978;2022-10-16T00:57:53;96830.72;;;16.51;43.69
25350;BME280;13302;48.796;11.978;2022-10-16T01:00:41;96840.69;;;16.52;44.06
25350;BME280;13302;48.796;11.978;2022-10-16T01:03:31;96836.72;;;16.53;44.14
25350;BME280;13302;48.796;11.978;2022-10-16T01:12:57;96849.44;;;16.54;43.99
25350;BME280;13302;48.796;11.978;2022-10-16T01:21:53;96851.44;;;16.54;43.50
25350;BME280;13302;48.796;11.978;2022-10-16T01:24:46;96857.03;;;16.54;43.54
25350;BME280;13302;48.796;11.978;2022-10-16T01:27:36;96852.25;;;16.54;43.61
25350;BME280;13302;48.796;11.978;2022-10-16T01:30:30;96856.25;;;16.53;43.43
25350;BME280;13302;48.796;11.978;2022-10-16T01:33:24;96852.66;;;16.53;43.53
25350;BME280;13302;48.796;11.978;2022-10-16T01:36:18;96862.59;;;16.54;43.48
25350;BME280;13302;48.796;11.978;2022-10-16T01:39:10;96849.88;;;16.53;43.28
25350;BME280;13302;48.796;11.978;2022-10-16T01:42:29;96855.03;;;16.51;43.69
25350;BME280;13302;48.796;11.978;2022-10-16T01:45:15;96860.22;;;16.52;43.39
25350;BME280;13302;48.796;11.978;2022-10-16T01:48:06;96869.78;;;16.51;43.58
25350;BME280;13302;48.796;11.978;2022-10-16T01:51:14;96864.19;;;16.51;43.54
25350;BME280;13302;48.796;11.978;2022-10-16T01:54:02;96875.34;;;16.51;43.37
25350;BME280;13302;48.796;11.978;2022-10-16T01:56:51;96870.16;;;16.50;43.24
25350;BME280;13302;48.796;11.978;2022-10-16T01:59:44;96874.91;;;16.46;43.14
25350;BME280;13302;48.796;11.978;2022-10-16T02:02:33;96871.34;;;16.45;42.61
25350;BME280;13302;48.796;11.978;2022-10-16T02:05:34;96876.84;;;16.42;42.97
25350;BME280;13302;48.796;11.978;2022-10-16T02:08:27;96877.63;;;16.39;42.83
25350;BME280;13302;48.796;11.978;2022-10-16T02:11:15;96875.63;;;16.36;42.89
25350;BME280;13302;48.796;11.978;2022-10-16T02:14:05;96870.84;;;16.33;42.68
25350;BME280;13302;48.796;11.978;2022-10-16T02:16:52;96882.75;;;16.30;42.48
25350;BME280;13302;48.796;11.978;2022-10-16T02:19:40;96875.97;;;16.27;42.52
25350;BME280;13302;48.796;11.978;2022-10-16T02:22:32;96874.72;;;16.21;42.42
25350;BME280;13302;48.796;11.978;2022-10-16T02:25:24;96868.31;;;16.17;42.55
25350;BME280;13302;48.796;11.978;2022-10-16T02:28:20;96867.13;;;16.15;42.52
25350;BME280;13302;48.796;11.978;2022-10-16T02:31:11;96868.69;;;16.12;42.55
25350;BME280;13302;48.796;11.978;2022-10-16T02:34:00;96870.69;;;16.12;43.01
25350;BME280;13302;48.796;11.978;2022-10-16T02:36:50;96873.47;;;16.12;43.03
25350;BME280;13302;48.796;11.978;2022-10-16T02:39:38;96866.72;;;16.13;42.47
25350;BME280;13302;48.796;11.978;2022-10-16T02:42:33;96873.84;;;16.10;42.78
25350;BME280;13302;48.796;11.978;2022-10-16T02:45:21;96867.47;;;16.09;42.38
25350;BME280;13302;48.796;11.978;2022-10-16T02:48:09;96876.25;;;16.08;42.32
25350;BME280;13302;48.796;11.978;2022-10-16T02:50:56;96873.81;;;16.06;42.39
25350;BME280;13302;48.796;11.978;2022-10-16T02:53:43;96871.41;;;16.05;42.60
25350;BME280;13302;48.796;11.978;2022-10-16T02:56:30;96879.00;;;16.04;42.87
25350;BME280;13302;48.796;11.978;2022-10-16T02:59:18;96878.19;;;16.04;42.94
25350;BME280;13302;48.796;11.978;2022-10-16T03:02:05;96883.38;;;16.05;43.06
25350;BME280;13302;48.796;11.978;2022-10-16T03:04:52;96880.59;;;16.05;42.30
25350;BME280;13302;48.796;11.978;2022-10-16T03:07:39;96887.38;;;16.04;42.52
25350;BME280;13302;48.796;11.978;2022-10-16T03:10:27;96879.38;;;16.03;42.47
25350;BME280;13302;48.796;11.978;2022-10-16T03:13:14;96886.53;;;16.00;42.09
25350;BME280;13302;48.796;11.978;2022-10-16T03:16:01;96883.69;;;15.97;41.97
25350;BME280;13302;48.796;11.978;2022-10-16T03:18:48;96892.47;;;15.95;41.94
25350;BME280;13302;48.796;11.978;2022-10-16T03:21:36;96891.22;;;15.93;42.33
25350;BME280;13302;48.796;11.978;2022-10-16T03:24:23;96888.41;;;15.89;42.12
25350;BME280;13302;48.796;11.978;2022-10-16T03:27:10;96883.25;;;15.88;42.36
25350;BME280;13302;48.796;11.978;2022-10-16T03:29:57;96884.00;;;15.85;42.39
25350;BME280;13302;48.796;11.978;2022-10-16T03:32:44;96882.00;;;15.82;41.95
25350;BME280;13302;48.796;11.978;2022-10-16T03:35:32;96884.75;;;15.78;42.11
25350;BME280;13302;48.796;11.978;2022-10-16T03:38:20;96882.34;;;15.77;42.09
25350;BME280;13302;48.796;11.978;2022-10-16T03:41:07;96886.69;;;15.74;41.83
25350;BME280;13302;48.796;11.978;2022-10-16T03:43:54;96884.69;;;15.71;42.15
25350;BME280;13302;48.796;11.978;2022-10-16T03:46:41;96889.84;;;15.69;42.07
25350;BME280;13302;48.796;11.978;2022-10-16T03:49:28;96899.34;;;15.68;42.05
25350;BME280;13302;48.796;11.978;2022-10-16T03:52:15;96898.13;;;15.66;42.15
25350;BME280;13302;48.796;11.978;2022-10-16T03:55:03;96910.47;;;15.64;41.85
25350;BME280;13302;48.796;11.978;2022-10-16T03:57:50;96900.91;;;15.62;41.77
25350;BME280;13302;48.796;11.978;2022-10-16T04:00:44;96898.88;;;15.59;42.06
25350;BME280;13302;48.796;11.978;2022-10-16T04:03:31;96898.88;;;15.59;41.85
25350;BME280;13302;48.796;11.978;2022-10-16T04:06:18;96891.69;;;15.58;41.86
25350;BME280;13302;48.796;11.978;2022-10-16T04:09:05;96906.44;;;15.58;42.25
25350;BME280;13302;48.796;11.978;2022-10-16T04:11:52;96902.84;;;15.58;42.43
25350;BME280;13302;48.796;11.978;2022-10-16T04:14:39;96901.22;;;15.57;42.25
25350;BME280;13302;48.796;11.978;2022-10-16T04:17:26;96907.25;;;15.59;42.40
25350;BME280;13302;48.796;11.978;2022-10-16T04:20:14;96906.03;;;15.60;42.43
25350;BME280;13302;48.796;11.978;2022-10-16T04:23:02;96905.66;;;15.61;42.57
25350;BME280;13302;48.796;11.978;2022-10-16T04:25:49;96914.81;;;15.62;42.34
25350;BME280;13302;48.796;11.978;2022-10-16T04:28:36;96907.66;;;15.61;42.20
25350;BME280;13302;48.796;11.978;2022-10-16T04:31:23;96909.25;;;15.62;42.36
25350;BME280;13302;48.796;11.978;2022-10-16T04:34:10;96910.06;;;15.62;42.59
25350;BME280;13302;48.796;11.978;2022-10-16T04:36:57;96918.00;;;15.64;42.60
25350;BME280;13302;48.796;11.978;2022-10-16T04:39:44;96920.06;;;15.67;42.77
25350;BME280;13302;48.796;11.978;2022-10-16T04:42:31;96923.28;;;15.69;43.04
25350;BME280;13302;48.796;11.978;2022-10-16T04:45:18;96919.72;;;15.72;42.98
25350;BME280;13302;48.796;11.978;2022-10-16T04:48:05;96914.19;;;15.76;42.79
25350;BME280;13302;48.796;11.978;2022-10-16T04:50:52;96922.56;;;15.76;43.02
25350;BME280;13302;48.796;11.978;2022-10-16T04:53:41;96920.97;;;15.78;42.86
25350;BME280;13302;48.796;11.978;2022-10-16T04:56:28;96913.03;;;15.80;43.21
25350;BME280;13302;48.796;11.978;2022-10-16T04:59:15;96915.06;;;15.83;43.00
25350;BME280;13302;48.796;11.978;2022-10-16T05:02:02;96921.84;;;15.86;42.96
25350;BME280;13302;48.796;11.978;2022-10-16T05:04:50;96921.88;;;15.89;43.19
25350;BME280;13302;48.796;11.978;2022-10-16T05:07:37;96915.94;;;15.91;43.14
25350;BME280;13302;48.796;11.978;2022-10-16T05:10:24;96918.31;;;15.92;43.38
25350;BME280;13302;48.796;11.978;2022-10-16T05:13:11;96925.50;;;15.93;43.47
25350;BME280;13302;48.796;11.978;2022-10-16T05:15:58;96932.69;;;15.94;43.12
25350;BME280;13302;48.796;11.978;2022-10-16T05:18:45;96935.88;;;15.96;43.29
25350;BME280;13302;48.796;11.978;2022-10-16T05:21:32;96927.94;;;15.98;43.28
25350;BME280;13302;48.796;11.978;2022-10-16T05:24:20;96936.31;;;15.98;43.35
25350;BME280;13302;48.796;11.978;2022-10-16T05:27:07;96925.97;;;15.99;43.14
25350;BME280;13302;48.796;11.978;2022-10-16T05:29:54;96910.03;;;15.99;43.31
25350;BME280;13302;48.796;11.978;2022-10-16T05:32:41;96914.03;;;16.02;43.31
25350;BME280;13302;48.796;11.978;2022-10-16T05:35:28;96910.44;;;16.01;43.17
25350;BME280;13302;48.796;11.978;2022-10-16T05:38:15;96920.03;;;16.04;43.20
25350;BME280;13302;48.796;11.978;2022-10-16T05:41:04;96922.41;;;16.05;43.27
25350;BME280;13302;48.796;11.978;2022-10-16T05:43:52;96919.63;;;16.05;43.15
25350;BME280;13302;48.796;11.978;2022-10-16T05:46:39;96928.00;;;16.05;43.11
25350;BME280;13302;48.796;11.978;2022-10-16T05:49:26;96922.41;;;16.05;42.83
25350;BME280;13302;48.796;11.978;2022-10-16T05:52:13;96929.19;;;16.04;43.16
25350;BME280;13302;48.796;11.978;2022-10-16T05:55:00;96924.81;;;16.03;43.30
25350;BME280;13302;48.796;11.978;2022-10-16T05:57:47;96928.41;;;16.04;43.28
25350;BME280;13302;48.796;11.978;2022-10-16T06:00:34;96935.97;;;16.03;43.04
25350;BME280;13302;48.796;11.978;2022-10-16T06:03:21;96946.31;;;16.03;43.06
25350;BME280;13302;48.796;11.978;2022-10-16T06:06:14;96945.50;;;16.02;43.08
25350;BME280;13302;48.796;11.978;2022-10-16T06:09:02;96957.09;;;16.04;43.29
25350;BME280;13302;48.796;11.978;2022-10-16T06:11:49;96952.28;;;16.05;43.30
25350;BME280;13302;48.796;11.978;2022-10-16T06:14:36;96950.28;;;16.05;43.30
25350;BME280;13302;48.796;11.978;2022-10-16T06:17:23;96959.47;;;16.06;43.43
25350;BME280;13302;48.796;11.978;2022-10-16T06:20:11;96954.69;;;16.06;43.09
25350;BME280;13302;48.796;11.978;2022-10-16T06:22:58;96965.47;;;16.08;43.41
25350;BME280;13302;48.796;11.978;2022-10-16T06:25:45;96970.25;;;16.07;43.40
25350;BME280;13302;48.796;11.978;2022-10-16T06:28:32;96974.22;;;16.06;43.16
25350;BME280;13302;48.796;11.978;2022-10-16T06:31:20;96975.84;;;16.07;43.27
25350;BME280;13302;48.796;11.978;2022-10-16T06:34:09;96981.00;;;16.09;43.63
25350;BME280;13302;48.796;11.978;2022-10-16T06:36:57;96987.00;;;16.11;43.57
25350;BME280;13302;48.796;11.978;2022-10-16T06:39:44;96986.63;;;16.13;43.59
25350;BME280;13302;48.796;11.978;2022-10-16T06:42:31;96985.88;;;16.16;43.38
25350;BME280;13302;48.796;11.978;2022-10-16T06:45:18;96991.84;;;16.18;43.30
25350;BME280;13302;48.796;11.978;2022-10-16T06:48:06;97000.25;;;16.21;43.18
25350;BME280;13302;48.796;11.978;2022-10-16T06:51:06;97001.03;;;16.22;43.21
25350;BME280;13302;48.796;11.978;2022-10-16T06:53:55;97002.28;;;16.24;43.52
25350;BME280;13302;48.796;11.978;2022-10-16T06:56:51;97003.09;;;16.25;43.45
25350;BME280;13302;48.796;11.978;2022-10-16T06:59:38;97013.84;;;16.26;43.42
25350;BME280;13302;48.796;11.978;2022-10-16T07:02:25;97018.25;;;16.27;43.76
25350;BME280;13302;48.796;11.978;2022-10-16T07:05:12;97029.84;;;16.29;43.83
25350;BME280;13302;48.796;11.978;2022-10-16T07:07:59;97029.44;;;16.31;43.58
25350;BME280;13302;48.796;11.978;2022-10-16T07:10:46;97033.47;;;16.33;43.69
25350;BME280;13302;48.796;11.978;2022-10-16T07:13:37;97043.03;;;16.36;43.66
25350;BME280;13302;48.796;11.978;2022-10-16T07:16:29;97049.81;;;16.38;43.71
25350;BME280;13302;48.796;11.978;2022-10-16T07:19:17;97050.66;;;16.42;43.79
25350;BME280;13302;48.796;11.978;2022-10-16T07:22:04;97047.91;;;16.46;44.14
25350;BME280;13302;48.796;11.978;2022-10-16T07:24:51;97047.53;;;16.47;43.88
25350;BME280;13302;48.796;11.978;2022-10-16T07:27:39;97040.00;;;16.51;44.01
25350;BME280;13302;48.796;11.978;2022-10-16T07:30:26;97044.00;;;16.54;44.09
25350;BME280;13302;48.796;11.978;2022-10-16T07:33:13;97058.00;;;16.58;44.07
25350;BME280;13302;48.796;11.978;2022-10-16T07:36:00;97060.03;;;16.61;44.06
25350;BME280;13302;48.796;11.978;2022-10-16T07:38:48;97059.25;;;16.64;44.04
25350;BME280;13302;48.796;11.978;2022-10-16T07:41:38;97045.72;;;16.66;43.59
25350;BME280;13302;48.796;11.978;2022-10-16T07:44:25;97046.53;;;16.70;44.03
25350;BME280;13302;48.796;11.978;2022-10-16T07:47:12;97056.94;;;16.73;44.02
25350;BME280;13302;48.796;11.978;2022-10-16T07:50:00;97048.97;;;16.75;43.82
25350;BME280;13302;48.796;11.978;2022-10-16T07:52:47;97049.38;;;16.77;43.79
25350;BME280;13302;48.796;11.978;2022-10-16T07:55:34;97059.78;;;16.80;44.07
25350;BME280;13302;48.796;11.978;2022-10-16T07:58:21;97063.00;;;16.82;44.06
25350;BME280;13302;48.796;11.978;2022-10-16T08:01:10;97070.59;;;16.85;43.99
25350;BME280;13302;48.796;11.978;2022-10-16T08:03:58;97062.59;;;16.87;44.20
25350;BME280;13302;48.796;11.978;2022-10-16T08:06:45;97065.81;;;16.89;44.30
25350;BME280;13302;48.796;11.978;2022-10-16T08:09:32;97081.00;;;16.91;44.29
25350;BME280;13302;48.796;11.978;2022-10-16T08:12:19;97074.66;;;16.94;44.45
25350;BME280;13302;48.796;11.978;2022-10-16T08:15:06;97075.84;;;16.97;44.00
25350;BME280;13302;48.796;11.978;2022-10-16T08:17:58;97079.84;;;16.99;44.34
25350;BME280;13302;48.796;11.978;2022-10-16T08:20:45;97085.88;;;17.02;44.31
25350;BME280;13302;48.796;11.978;2022-10-16T08:23:32;97095.84;;;17.03;44.51
25350;BME280;13302;48.796;11.978;2022-10-16T08:26:19;97089.50;;;17.06;44.22
25350;BME280;13302;48.796;11.978;2022-10-16T08:29:06;97087.09;;;17.08;44.15
25350;BME280;13302;48.796;11.978;2022-10-16T08:31:54;97087.53;;;17.10;44.32
25350;BME280;13302;48.796;11.978;2022-10-16T08:34:41;97085.94;;;17.12;44.37
25350;BME280;13302;48.796;11.978;2022-10-16T08:37:31;97094.75;;;17.14;44.58
25350;BME280;13302;48.796;11.978;2022-10-16T08:40:23;97112.34;;;17.18;44.31
25350;BME280;13302;48.796;11.978;2022-10-16T08:43:26;97097.59;;;17.21;44.62
25350;BME280;13302;48.796;11.978;2022-10-16T08:49:19;97107.25;;;17.27;44.54
25350;BME280;13302;48.796;11.978;2022-10-16T08:52:12;97106.03;;;17.28;44.38
25350;BME280;13302;48.796;11.978;2022-10-16T08:55:01;97111.66;;;17.32;44.61
25350;BME280;13302;48.796;11.978;2022-10-16T08:57:49;97106.09;;;17.35;44.37
25350;BME280;13302;48.796;11.978;2022-10-16T09:00:36;97103.69;;;17.37;44.49
25350;BME280;13302;48.796;11.978;2022-10-16T09:03:25;97102.13;;;17.40;44.45
25350;BME280;13302;48.796;11.978;2022-10-16T09:06:30;97106.13;;;17.42;44.65
25350;BME280;13302;48.796;11.978;2022-10-16T09:09:51;97101.75;;;17.45;44.49
25350;BME280;13302;48.796;11.978;2022-10-16T09:12:52;97097.38;;;17.48;44.31
25350;BME280;13302;48.796;11.978;2022-10-16T09:15:55;97102.97;;;17.51;44.58
25350;BME280;13302;48.796;11.978;2022-10-16T09:18:51;97093.81;;;17.54;44.64
25350;BME280;13302;48.796;11.978;2022-10-16T09:21:44;97095.00;;;17.57;44.29
25350;BME280;13302;48.796;11.978;2022-10-16T09:24:32;97096.63;;;17.61;44.45
25350;BME280;13302;48.796;11.978;2022-10-16T09:27:19;97096.69;;;17.65;44.54
25350;BME280;13302;48.796;11.978;2022-10-16T09:30:18;97101.06;;;17.66;44.61
25350;BME280;13302;48.796;11.978;2022-10-16T09:33:07;97102.69;;;17.70;44.68
25350;BME280;13302;48.796;11.978;2022-10-16T09:35:56;97110.28;;;17.73;44.36
25350;BME280;13302;48.796;11.978;2022-10-16T09:38:45;97113.09;;;17.77;44.81
25350;BME280;13302;48.796;11.978;2022-10-16T09:41:34;97122.28;;;17.77;44.58
25350;BME280;13302;48.796;11.978;2022-10-16T09:44:26;97136.28;;;17.81;44.68
25350;BME280;13302;48.796;11.978;2022-10-16T09:47:16;97133.50;;;17.84;44.64
25350;BME280;13302;48.796;11.978;2022-10-16T09:50:23;97141.13;;;17.87;44.50
25350;BME280;13302;48.796;11.978;2022-10-16T09:53:13;97136.38;;;17.92;44.36
25350;BME280;13302;48.796;11.978;2022-10-16T09:56:01;97139.97;;;17.96;44.36
25350;BME280;13302;48.796;11.978;2022-10-16T09:58:53;97146.78;;;17.98;44.21
25350;BME280;13302;48.796;11.978;2022-10-16T10:01:45;97140.78;;;18.00;44.66
25350;BME280;13302;48.796;11.978;2022-10-16T10:04:45;97152.81;;;18.04;44.38
25350;BME280;13302;48.796;11.978;2022-10-16T10:07:42;97154.00;;;18.06;44.62
25350;BME280;13302;48.796;11.978;2022-10-16T10:10:31;97155.63;;;18.11;44.46
25350;BME280;13302;48.796;11.978;2022-10-16T10:13:22;97152.06;;;18.14;44.17
25350;BME280;13302;48.796;11.978;2022-10-16T10:16:10;97148.03;;;18.18;44.57
25350;BME280;13302;48.796;11.978;2022-10-16T10:18:59;97150.06;;;18.21;44.74
25350;BME280;13302;48.796;11.978;2022-10-16T10:21:46;97150.09;;;18.25;44.59
25350;BME280;13302;48.796;11.978;2022-10-16T10:24:34;97145.31;;;18.29;44.27
25350;BME280;13302;48.796;11.978;2022-10-16T10:27:30;97142.91;;;18.31;44.35
25350;BME280;13302;48.796;11.978;2022-10-16T10:30:44;97145.72;;;18.34;44.73
25350;BME280;13302;48.796;11.978;2022-10-16T10:33:47;97138.13;;;18.39;44.59
25350;BME280;13302;48.796;11.978;2022-10-16T10:36:38;97129.34;;;18.44;44.72
25350;BME280;13302;48.796;11.978;2022-10-16T10:39:33;97124.97;;;18.46;44.52
25350;BME280;13302;48.796;11.978;2022-10-16T10:42:28;97128.16;;;18.52;44.58
25350;BME280;13302;48.796;11.978;2022-10-16T10:45:26;97133.78;;;18.55;44.59
25350;BME280;13302;48.796;11.978;2022-10-16T10:48:40;97128.22;;;18.59;44.50
25350;BME280;13302;48.796;11.978;2022-10-16T10:52:03;97127.81;;;18.64;44.28
25350;BME280;13302;48.796;11.978;2022-10-16T10:55:06;97128.59;;;18.68;44.38
25350;BME280;13302;48.796;11.978;2022-10-16T10:58:20;97129.81;;;18.70;44.45
25350;BME280;13302;48.796;11.978;2022-10-16T11:01:14;97127.41;;;18.76;44.24
25350;BME280;13302;48.796;11.978;2022-10-16T11:07:20;97134.22;;;18.82;44.16
25350;BME280;13302;48.796;11.978;2022-10-16T11:10:18;97138.22;;;18.85;44.40
25350;BME280;13302;48.796;11.978;2022-10-16T11:16:20;97135.44;;;18.92;44.30
25350;BME280;13302;48.796;11.978;2022-10-16T11:19:25;97136.25;;;18.96;44.13
25350;BME280;13302;48.796;11.978;2022-10-16T11:22:30;97143.84;;;18.99;44.39
25350;BME280;13302;48.796;11.978;2022-10-16T11:25:28;97149.44;;;19.02;44.12
25350;BME280;13302;48.796;11.978;2022-10-16T11:28:19;97145.84;;;19.05;44.17
25350;BME280;13302;48.796;11.978;2022-10-16T11:34:15;97139.84;;;19.10;44.27
25350;BME280;13302;48.796;11.978;2022-10-16T11:37:12;97138.63;;;19.15;44.22
25350;BME280;13302;48.796;11.978;2022-10-16T11:40:33;97145.88;;;19.19;44.00
25350;BME280;13302;48.796;11.978;2022-10-16T11:43:48;97145.88;;;19.23;44.16
25350;BME280;13302;48.796;11.978;2022-10-16T11:46:40;97145.88;;;19.26;44.06
25350;BME280;13302;48.796;11.978;2022-10-16T11:49:53;97141.88;;;19.31;43.99
25350;BME280;13302;48.796;11.978;2022-10-16T11:56:01;97134.66;;;19.37;43.74
25350;BME280;13302;48.796;11.978;2022-10-16T11:59:05;97147.44;;;19.38;43.68
25350;BME280;13302;48.796;11.978;2022-10-16T12:08:15;97140.63;;;19.43;43.55
25350;BME280;13302;48.796;11.978;2022-10-16T12:11:23;97133.84;;;19.44;43.58
25350;BME280;13302;48.796;11.978;2022-10-16T12:17:23;97126.22;;;19.48;43.45
25350;BME280;13302;48.796;11.978;2022-10-16T12:23:04;97123.00;;;19.53;43.38
25350;BME280;13302;48.796;11.978;2022-10-16T12:25:57;97122.59;;;19.54;43.34
25350;BME280;13302;48.796;11.978;2022-10-16T12:28:45;97124.59;;;19.57;43.22
25350;BME280;13302;48.796;11.978;2022-10-16T12:31:44;97127.41;;;19.57;43.50
25350;BME280;13302;48.796;11.978;2022-10-16T12:34:44;97133.41;;;19.59;43.11
25350;BME280;13302;48.796;11.978;2022-10-16T12:37:34;97126.59;;;19.60;43.10
25350;BME280;13302;48.796;11.978;2022-10-16T12:40:29;97129.00;;;19.62;42.95
25350;BME280;13302;48.796;11.978;2022-10-16T12:51:58;97129.78;;;19.62;43.10
25350;BME280;13302;48.796;11.978;2022-10-16T12:54:45;97139.78;;;19.63;42.91
25350;BME280;13302;48.796;11.978;2022-10-16T13:00:45;97142.22;;;19.65;43.30
25350;BME280;13302;48.796;11.978;2022-10-16T13:07:15;97139.78;;;19.67;43.13
25350;BME280;13302;48.796;11.978;2022-10-16T13:10:25;97148.19;;;19.70;43.12
25350;BME280;13302;48.796;11.978;2022-10-16T13:16:14;97156.59;;;19.78;42.99
25350;BME280;13302;48.796;11.978;2022-10-16T13:22:18;97162.59;;;19.80;43.27
25350;BME280;13302;48.796;11.978;2022-10-16T13:25:28;97158.59;;;19.81;43.33
25350;BME280;13302;48.796;11.978;2022-10-16T13:28:22;97160.59;;;19.84;43.04
25350;BME280;13302;48.796;11.978;2022-10-16T13:31:20;97161.81;;;19.86;42.93
25350;BME280;13302;48.796;11.978;2022-10-16T13:34:13;97169.00;;;19.87;42.86
25350;BME280;13302;48.796;11.978;2022-10-16T13:37:01;97169.81;;;19.91;42.73
25350;BME280;13302;48.796;11.978;2022-10-16T13:39:48;97171.03;;;19.94;42.63
25350;BME280;13302;48.796;11.978;2022-10-16T13:42:37;97179.00;;;19.95;42.75
25350;BME280;13302;48.796;11.978;2022-10-16T13:45:25;97182.63;;;19.96;42.33
25350;BME280;13302;48.796;11.978;2022-10-16T13:48:12;97167.38;;;19.97;42.25
25350;BME280;13302;48.796;11.978;2022-10-16T13:51:18;97174.19;;;19.96;42.70
25350;BME280;13302;48.796;11.978;2022-10-16T13:54:05;97175.00;;;20.00;42.63
25350;BME280;13302;48.796;11.978;2022-10-16T13:56:52;97175.78;;;20.00;42.35
25350;BME280;13302;48.796;11.978;2022-10-16T13:59:55;97174.59;;;20.01;42.72
25350;BME280;13302;48.796;11.978;2022-10-16T14:02:42;97170.59;;;20.02;42.58
25350;BME280;13302;48.796;11.978;2022-10-16T14:05:29;97182.63;;;20.03;42.41
25350;BME280;13302;48.796;11.978;2022-10-16T14:08:16;97174.56;;;20.05;42.48
25350;BME280;13302;48.796;11.978;2022-10-16T14:11:03;97173.38;;;20.06;42.39
25350;BME280;13302;48.796;11.978;2022-10-16T14:13:51;97168.16;;;20.08;42.52
25350;BME280;13302;48.796;11.978;2022-10-16T14:16:40;97175.38;;;20.09;42.57
25350;BME280;13302;48.796;11.978;2022-10-16T14:19:29;97171.38;;;20.10;42.43
25350;BME280;13302;48.796;11.978;2022-10-16T14:22:36;97174.97;;;20.10;42.50
25350;BME280;13302;48.796;11.978;2022-10-16T14:25:27;97174.53;;;20.12;42.42
25350;BME280;13302;48.796;11.978;2022-10-16T14:28:22;97178.16;;;20.12;42.40
25350;BME280;13302;48.796;11.978;2022-10-16T14:31:25;97178.16;;;20.12;42.33
25350;BME280;13302;48.796;11.978;2022-10-16T14:37:25;97173.34;;;20.13;42.16
25350;BME280;13302;48.796;11.978;2022-10-16T14:40:15;97169.75;;;20.12;42.16
25350;BME280;13302;48.796;11.978;2022-10-16T14:43:03;97174.16;;;20.13;42.00
25350;BME280;13302;48.796;11.978;2022-10-16T14:45:53;97174.97;;;20.10;42.23
25350;BME280;13302;48.796;11.978;2022-10-16T14:48:52;97183.78;;;20.09;42.06
25350;BME280;13302;48.796;11.978;2022-10-16T14:51:42;97181.38;;;20.07;42.09
25350;BME280;13302;48.796;11.978;2022-10-16T14:54:31;97187.41;;;20.06;42.34
25350;BME280;13302;48.796;11.978;2022-10-16T14:57:19;97189.00;;;20.03;42.31
25350;BME280;13302;48.796;11.978;2022-10-16T15:00:20;97192.63;;;20.00;42.36
25350;BME280;13302;48.796;11.978;2022-10-16T15:03:08;97191.44;;;20.01;42.33
25350;BME280;13302;48.796;11.978;2022-10-16T15:05:55;97192.63;;;20.00;42.33
25350;BME280;13302;48.796;11.978;2022-10-16T15:08:42;97193.44;;;19.97;42.81
25350;BME280;13302;48.796;11.978;2022-10-16T15:11:31;97190.22;;;19.95;42.67
25350;BME280;13302;48.796;11.978;2022-10-16T15:14:19;97191.47;;;19.94;42.87
25350;BME280;13302;48.796;11.978;2022-10-16T15:17:09;97198.66;;;19.92;42.57
25350;BME280;13302;48.796;11.978;2022-10-16T15:19:57;97196.28;;;19.90;42.90
25350;BME280;13302;48.796;11.978;2022-10-16T15:22:45;97191.88;;;19.89;42.88
25350;BME280;13302;48.796;11.978;2022-10-16T15:25:38;97199.88;;;19.87;42.86
25350;BME280;13302;48.796;11.978;2022-10-16T15:28:28;97192.25;;;19.88;43.09
25350;BME280;13302;48.796;11.978;2022-10-16T15:31:15;97194.25;;;19.87;42.97
25350;BME280;13302;48.796;11.978;2022-10-16T15:34:02;97193.50;;;19.87;42.98
25350;BME280;13302;48.796;11.978;2022-10-16T15:36:51;97203.09;;;19.86;42.97
25350;BME280;13302;48.796;11.978;2022-10-16T15:39:38;97203.09;;;19.86;43.02
25350;BME280;13302;48.796;11.978;2022-10-16T15:42:27;97208.28;;;19.87;43.10
25350;BME280;13302;48.796;11.978;2022-10-16T15:45:15;97205.50;;;19.87;43.44
25350;BME280;13302;48.796;11.978;2022-10-16T15:48:03;97214.31;;;19.89;43.31
25350;BME280;13302;48.796;11.978;2022-10-16T15:50:50;97205.09;;;19.89;43.61
25350;BME280;13302;48.796;11.978;2022-10-16T15:53:37;97215.50;;;19.88;43.37
25350;BME280;13302;48.796;11.978;2022-10-16T15:56:24;97211.50;;;19.89;43.54
25350;BME280;13302;48.796;11.978;2022-10-16T15:59:12;97212.72;;;19.88;43.44